sensor_id;sensor_type;location;lat;lon;timestamp;temperature;humidity
37782;DHT22;23621;50.878;4.584;2022-08-19T00:01:37;26.30;74.00
37782;DHT22;23621;50.878;4.584;2022-08-19T00:04:06;26.30;74.20
37782;DHT22;23621;50.878;4.584;2022-08-19T00:06:34;26.30;74.20
37782;DHT22;23621;50.878;4.584;2022-08-19T00:09:01;26.20;74.30
37782;DHT22;23621;50.878;4.584;2022-08-19T00:11:27;26.20;74.40
37782;DHT22;23621;50.878;4.584;2022-08-19T00:13:54;26.20;74.40
37782;DHT22;23621;50.878;4.584;2022-08-19T00:16:21;26.20;74.40
37782;DHT22;23621;50.878;4.584;2022-08-19T00:18:47;26.20;74.40
37782;DHT22;23621;50.878;4.584;2022-08-19T00:21:13;26.20;74.40
37782;DHT22;23621;50.878;4.584;2022-08-19T00:23:39;26.20;74.60
37782;DHT22;23621;50.878;4.584;2022-08-19T00:26:07;26.30;74.50
37782;DHT22;23621;50.878;4.584;2022-08-19T00:28:33;26.30;74.40
37782;DHT22;23621;50.878;4.584;2022-08-19T00:31:01;26.30;74.40
37782;DHT22;23621;50.878;4.584;2022-08-19T00:33:28;26.30;74.40
37782;DHT22;23621;50.878;4.584;2022-08-19T00:35:57;26.30;74.30
37782;DHT22;23621;50.878;4.584;2022-08-19T00:38:22;26.40;74.40
37782;DHT22;23621;50.878;4.584;2022-08-19T00:40:48;26.30;74.30
37782;DHT22;23621;50.878;4.584;2022-08-19T00:43:19;26.30;74.40
37782;DHT22;23621;50.878;4.584;2022-08-19T00:45:46;26.40;74.40
37782;DHT22;23621;50.878;4.584;2022-08-19T00:48:12;26.40;74.20
37782;DHT22;23621;50.878;4.584;2022-08-19T00:50:40;26.40;74.20
37782;DHT22;23621;50.878;4.584;2022-08-19T00:53:11;26.40;74.30
37782;DHT22;23621;50.878;4.584;2022-08-19T00:55:40;26.40;74.30
37782;DHT22;23621;50.878;4.584;2022-08-19T00:58:10;26.40;74.30
37782;DHT22;23621;50.878;4.584;2022-08-19T01:00:37;26.40;74.20
37782;DHT22;23621;50.878;4.584;2022-08-19T01:03:12;26.40;74.30
37782;DHT22;23621;50.878;4.584;2022-08-19T01:05:39;26.40;74.50
37782;DHT22;23621;50.878;4.584;2022-08-19T01:08:06;26.40;74.60
37782;DHT22;23621;50.878;4.584;2022-08-19T01:10:45;26.40;74.80
37782;DHT22;23621;50.878;4.584;2022-08-19T01:13:14;26.40;75.00
37782;DHT22;23621;50.878;4.584;2022-08-19T01:15:45;26.40;75.10
37782;DHT22;23621;50.878;4.584;2022-08-19T01:18:13;26.40;75.40
37782;DHT22;23621;50.878;4.584;2022-08-19T01:20:41;26.40;75.40
37782;DHT22;23621;50.878;4.584;2022-08-19T01:23:07;26.40;75.60
37782;DHT22;23621;50.878;4.584;2022-08-19T01:25:44;26.40;75.40
37782;DHT22;23621;50.878;4.584;2022-08-19T01:28:16;26.40;75.40
37782;DHT22;23621;50.878;4.584;2022-08-19T01:30:44;26.40;75.30
37782;DHT22;23621;50.878;4.584;2022-08-19T01:33:10;26.40;75.30
37782;DHT22;23621;50.878;4.584;2022-08-19T01:35:36;26.40;75.20
37782;DHT22;23621;50.878;4.584;2022-08-19T01:38:07;26.30;75.20
37782;DHT22;23621;50.878;4.584;2022-08-19T01:40:37;26.30;75.40
37782;DHT22;23621;50.878;4.584;2022-08-19T01:43:03;26.30;75.40
37782;DHT22;23621;50.878;4.584;2022-08-19T01:45:32;26.20;75.30
37782;DHT22;23621;50.878;4.584;2022-08-19T01:48:00;26.20;75.40
37782;DHT22;23621;50.878;4.584;2022-08-19T01:50:26;26.10;75.40
37782;DHT22;23621;50.878;4.584;2022-08-19T01:52:52;26.10;75.60
37782;DHT22;23621;50.878;4.584;2022-08-19T01:55:21;26.10;75.70
37782;DHT22;23621;50.878;4.584;2022-08-19T01:57:52;26.10;76.40
37782;DHT22;23621;50.878;4.584;2022-08-19T02:00:22;26.00;75.60
37782;DHT22;23621;50.878;4.584;2022-08-19T02:02:48;26.00;75.80
37782;DHT22;23621;50.878;4.584;2022-08-19T02:05:14;26.00;75.80
37782;DHT22;23621;50.878;4.584;2022-08-19T02:07:44;25.90;75.70
37782;DHT22;23621;50.878;4.584;2022-08-19T02:10:14;25.90;75.70
37782;DHT22;23621;50.878;4.584;2022-08-19T02:12:40;25.90;75.80
37782;DHT22;23621;50.878;4.584;2022-08-19T02:15:06;25.90;75.90
37782;DHT22;23621;50.878;4.584;2022-08-19T02:17:33;25.80;75.90
37782;DHT22;23621;50.878;4.584;2022-08-19T02:19:58;25.80;75.90
37782;DHT22;23621;50.878;4.584;2022-08-19T02:22:25;25.70;75.90
37782;DHT22;23621;50.878;4.584;2022-08-19T02:24:54;25.70;75.80
37782;DHT22;23621;50.878;4.584;2022-08-19T02:27:21;25.80;75.70
37782;DHT22;23621;50.878;4.584;2022-08-19T02:29:48;25.70;75.50
37782;DHT22;23621;50.878;4.584;2022-08-19T02:32:14;25.80;75.50
37782;DHT22;23621;50.878;4.584;2022-08-19T02:34:40;25.80;75.40
37782;DHT22;23621;50.878;4.584;2022-08-19T02:37:06;25.70;75.30
37782;DHT22;23621;50.878;4.584;2022-08-19T02:39:52;25.70;75.30
37782;DHT22;23621;50.878;4.584;2022-08-19T02:42:17;25.70;75.10
37782;DHT22;23621;50.878;4.584;2022-08-19T02:44:43;25.70;75.00
37782;DHT22;23621;50.878;4.584;2022-08-19T02:47:09;25.70;75.00
37782;DHT22;23621;50.878;4.584;2022-08-19T02:49:35;25.60;74.80
37782;DHT22;23621;50.878;4.584;2022-08-19T02:52:01;25.60;74.80
37782;DHT22;23621;50.878;4.584;2022-08-19T02:54:26;25.50;74.80
37782;DHT22;23621;50.878;4.584;2022-08-19T02:56:53;25.50;74.80
37782;DHT22;23621;50.878;4.584;2022-08-19T02:59:18;25.50;74.80
37782;DHT22;23621;50.878;4.584;2022-08-19T03:01:45;25.40;74.70
37782;DHT22;23621;50.878;4.584;2022-08-19T03:04:14;25.40;74.80
37782;DHT22;23621;50.878;4.584;2022-08-19T03:06:42;25.40;74.80
37782;DHT22;23621;50.878;4.584;2022-08-19T03:09:09;25.40;74.80
37782;DHT22;23621;50.878;4.584;2022-08-19T03:11:34;25.40;74.70
37782;DHT22;23621;50.878;4.584;2022-08-19T03:14:01;25.40;74.60
37782;DHT22;23621;50.878;4.584;2022-08-19T03:16:30;25.40;74.60
37782;DHT22;23621;50.878;4.584;2022-08-19T03:18:57;25.40;74.50
37782;DHT22;23621;50.878;4.584;2022-08-19T03:21:27;25.40;74.40
37782;DHT22;23621;50.878;4.584;2022-08-19T03:23:58;25.30;74.30
37782;DHT22;23621;50.878;4.584;2022-08-19T03:26:24;25.30;74.30
37782;DHT22;23621;50.878;4.584;2022-08-19T03:28:50;25.20;74.30
37782;DHT22;23621;50.878;4.584;2022-08-19T03:31:20;25.20;74.30
37782;DHT22;23621;50.878;4.584;2022-08-19T03:33:48;25.20;74.30
37782;DHT22;23621;50.878;4.584;2022-08-19T03:36:25;25.10;74.30
37782;DHT22;23621;50.878;4.584;2022-08-19T03:38:53;25.10;74.40
37782;DHT22;23621;50.878;4.584;2022-08-19T03:41:25;25.10;74.50
37782;DHT22;23621;50.878;4.584;2022-08-19T03:43:52;25.10;74.50
37782;DHT22;23621;50.878;4.584;2022-08-19T03:46:29;25.00;74.50
37782;DHT22;23621;50.878;4.584;2022-08-19T03:48:57;25.00;74.50
37782;DHT22;23621;50.878;4.584;2022-08-19T03:51:29;25.00;74.60
37782;DHT22;23621;50.878;4.584;2022-08-19T03:53:57;25.00;74.70
37782;DHT22;23621;50.878;4.584;2022-08-19T03:56:24;25.00;74.70
37782;DHT22;23621;50.878;4.584;2022-08-19T03:58:57;25.00;74.70
37782;DHT22;23621;50.878;4.584;2022-08-19T04:01:25;24.90;74.60
37782;DHT22;23621;50.878;4.584;2022-08-19T04:03:52;24.90;74.80
37782;DHT22;23621;50.878;4.584;2022-08-19T04:06:28;24.80;74.80
37782;DHT22;23621;50.878;4.584;2022-08-19T04:08:56;24.80;74.90
37782;DHT22;23621;50.878;4.584;2022-08-19T04:11:26;24.80;74.80
37782;DHT22;23621;50.878;4.584;2022-08-19T04:13:53;24.80;75.00
37782;DHT22;23621;50.878;4.584;2022-08-19T04:16:20;24.70;75.00
37782;DHT22;23621;50.878;4.584;2022-08-19T04:18:47;24.70;75.00
37782;DHT22;23621;50.878;4.584;2022-08-19T04:21:21;24.70;75.10
37782;DHT22;23621;50.878;4.584;2022-08-19T04:23:48;24.70;75.30
37782;DHT22;23621;50.878;4.584;2022-08-19T04:26:19;24.70;76.20
37782;DHT22;23621;50.878;4.584;2022-08-19T04:28:45;24.70;75.60
37782;DHT22;23621;50.878;4.584;2022-08-19T04:31:20;24.70;75.50
37782;DHT22;23621;50.878;4.584;2022-08-19T04:33:46;24.80;75.60
37782;DHT22;23621;50.878;4.584;2022-08-19T04:36:18;24.80;75.40
37782;DHT22;23621;50.878;4.584;2022-08-19T04:38:46;24.80;75.40
37782;DHT22;23621;50.878;4.584;2022-08-19T04:41:12;24.70;75.60
37782;DHT22;23621;50.878;4.584;2022-08-19T04:43:56;24.70;75.50
37782;DHT22;23621;50.878;4.584;2022-08-19T04:46:22;24.70;75.60
37782;DHT22;23621;50.878;4.584;2022-08-19T04:48:47;24.70;75.60
37782;DHT22;23621;50.878;4.584;2022-08-19T04:51:13;24.70;76.50
37782;DHT22;23621;50.878;4.584;2022-08-19T04:53:40;24.70;75.70
37782;DHT22;23621;50.878;4.584;2022-08-19T04:56:11;24.80;76.60
37782;DHT22;23621;50.878;4.584;2022-08-19T04:58:39;24.80;75.70
37782;DHT22;23621;50.878;4.584;2022-08-19T05:01:06;24.80;75.70
37782;DHT22;23621;50.878;4.584;2022-08-19T05:03:34;24.80;75.60
37782;DHT22;23621;50.878;4.584;2022-08-19T05:06:07;24.80;75.70
37782;DHT22;23621;50.878;4.584;2022-08-19T05:08:34;24.90;75.70
37782;DHT22;23621;50.878;4.584;2022-08-19T05:11:07;24.90;75.70
37782;DHT22;23621;50.878;4.584;2022-08-19T05:13:32;24.90;75.60
37782;DHT22;23621;50.878;4.584;2022-08-19T05:15:59;24.80;75.50
37782;DHT22;23621;50.878;4.584;2022-08-19T05:18:25;24.80;75.50
37782;DHT22;23621;50.878;4.584;2022-08-19T05:21:19;24.90;75.70
37782;DHT22;23621;50.878;4.584;2022-08-19T05:24:05;24.80;75.60
37782;DHT22;23621;50.878;4.584;2022-08-19T05:26:39;24.80;75.80
37782;DHT22;23621;50.878;4.584;2022-08-19T05:29:05;24.90;76.00
37782;DHT22;23621;50.878;4.584;2022-08-19T05:31:33;24.90;76.60
37782;DHT22;23621;50.878;4.584;2022-08-19T05:33:59;24.90;75.90
37782;DHT22;23621;50.878;4.584;2022-08-19T05:36:32;24.90;75.80
37782;DHT22;23621;50.878;4.584;2022-08-19T05:39:00;25.00;75.90
37782;DHT22;23621;50.878;4.584;2022-08-19T05:41:26;24.90;75.90
37782;DHT22;23621;50.878;4.584;2022-08-19T05:44:02;24.80;75.90
37782;DHT22;23621;50.878;4.584;2022-08-19T05:46:28;24.90;76.00
37782;DHT22;23621;50.878;4.584;2022-08-19T05:48:54;24.80;75.90
37782;DHT22;23621;50.878;4.584;2022-08-19T05:51:22;24.80;76.00
37782;DHT22;23621;50.878;4.584;2022-08-19T05:53:49;24.90;76.10
37782;DHT22;23621;50.878;4.584;2022-08-19T05:56:16;24.80;76.10
37782;DHT22;23621;50.878;4.584;2022-08-19T05:58:44;24.80;76.30
37782;DHT22;23621;50.878;4.584;2022-08-19T06:01:17;24.80;77.10
37782;DHT22;23621;50.878;4.584;2022-08-19T06:03:44;24.80;76.50
37782;DHT22;23621;50.878;4.584;2022-08-19T06:06:12;24.80;76.40
37782;DHT22;23621;50.878;4.584;2022-08-19T06:08:39;24.80;77.10
37782;DHT22;23621;50.878;4.584;2022-08-19T06:11:23;24.80;76.60
37782;DHT22;23621;50.878;4.584;2022-08-19T06:13:51;24.60;76.80
37782;DHT22;23621;50.878;4.584;2022-08-19T06:16:21;24.60;76.90
37782;DHT22;23621;50.878;4.584;2022-08-19T06:18:56;24.70;77.00
37782;DHT22;23621;50.878;4.584;2022-08-19T06:21:24;24.70;77.10
37782;DHT22;23621;50.878;4.584;2022-08-19T06:23:51;24.80;77.10
37782;DHT22;23621;50.878;4.584;2022-08-19T06:26:18;24.80;77.20
37782;DHT22;23621;50.878;4.584;2022-08-19T06:28:44;24.80;77.10
37782;DHT22;23621;50.878;4.584;2022-08-19T06:31:28;24.80;77.20
37782;DHT22;23621;50.878;4.584;2022-08-19T06:33:55;24.90;77.30
37782;DHT22;23621;50.878;4.584;2022-08-19T06:36:27;24.90;77.30
37782;DHT22;23621;50.878;4.584;2022-08-19T06:38:58;24.90;77.30
37782;DHT22;23621;50.878;4.584;2022-08-19T06:41:25;25.00;77.50
37782;DHT22;23621;50.878;4.584;2022-08-19T06:43:51;24.90;77.70
37782;DHT22;23621;50.878;4.584;2022-08-19T06:46:18;25.00;77.80
37782;DHT22;23621;50.878;4.584;2022-08-19T06:48:46;25.00;77.80
37782;DHT22;23621;50.878;4.584;2022-08-19T06:51:13;25.10;77.70
37782;DHT22;23621;50.878;4.584;2022-08-19T06:53:41;25.20;77.50
37782;DHT22;23621;50.878;4.584;2022-08-19T06:56:13;25.30;77.40
37782;DHT22;23621;50.878;4.584;2022-08-19T06:58:39;25.30;77.30
37782;DHT22;23621;50.878;4.584;2022-08-19T07:01:05;25.40;77.40
37782;DHT22;23621;50.878;4.584;2022-08-19T07:03:33;25.50;77.30
37782;DHT22;23621;50.878;4.584;2022-08-19T07:06:05;25.50;77.30
37782;DHT22;23621;50.878;4.584;2022-08-19T07:08:31;25.60;77.40
37782;DHT22;23621;50.878;4.584;2022-08-19T07:10:57;25.60;77.50
37782;DHT22;23621;50.878;4.584;2022-08-19T07:13:23;25.60;77.40
37782;DHT22;23621;50.878;4.584;2022-08-19T07:15:49;25.60;77.50
37782;DHT22;23621;50.878;4.584;2022-08-19T07:18:19;25.60;77.50
37782;DHT22;23621;50.878;4.584;2022-08-19T07:20:45;25.70;77.80
37782;DHT22;23621;50.878;4.584;2022-08-19T07:23:11;25.70;77.70
37782;DHT22;23621;50.878;4.584;2022-08-19T07:25:38;25.80;77.50
37782;DHT22;23621;50.878;4.584;2022-08-19T07:28:04;25.80;77.50
37782;DHT22;23621;50.878;4.584;2022-08-19T07:30:30;25.90;77.50
37782;DHT22;23621;50.878;4.584;2022-08-19T07:32:56;26.00;77.30
37782;DHT22;23621;50.878;4.584;2022-08-19T07:35:22;26.10;77.20
37782;DHT22;23621;50.878;4.584;2022-08-19T07:37:49;26.20;77.30
37782;DHT22;23621;50.878;4.584;2022-08-19T07:40:14;26.30;77.10
37782;DHT22;23621;50.878;4.584;2022-08-19T07:42:42;26.30;77.10
37782;DHT22;23621;50.878;4.584;2022-08-19T07:45:09;26.30;77.00
37782;DHT22;23621;50.878;4.584;2022-08-19T07:47:35;26.30;76.90
37782;DHT22;23621;50.878;4.584;2022-08-19T07:50:01;26.30;77.10
37782;DHT22;23621;50.878;4.584;2022-08-19T07:52:29;26.40;77.00
37782;DHT22;23621;50.878;4.584;2022-08-19T07:54:55;26.40;77.00
37782;DHT22;23621;50.878;4.584;2022-08-19T07:57:20;26.50;77.00
37782;DHT22;23621;50.878;4.584;2022-08-19T07:59:46;26.60;76.60
37782;DHT22;23621;50.878;4.584;2022-08-19T08:02:12;26.70;76.30
37782;DHT22;23621;50.878;4.584;2022-08-19T08:04:38;26.80;76.20
37782;DHT22;23621;50.878;4.584;2022-08-19T08:07:22;26.60;76.50
37782;DHT22;23621;50.878;4.584;2022-08-19T08:10:07;26.70;76.50
37782;DHT22;23621;50.878;4.584;2022-08-19T08:12:37;26.70;76.40
37782;DHT22;23621;50.878;4.584;2022-08-19T08:15:12;26.80;76.10
37782;DHT22;23621;50.878;4.584;2022-08-19T08:17:42;27.00;76.20
37782;DHT22;23621;50.878;4.584;2022-08-19T08:20:08;26.90;75.90
37782;DHT22;23621;50.878;4.584;2022-08-19T08:22:34;27.10;75.90
37782;DHT22;23621;50.878;4.584;2022-08-19T08:25:22;27.20;75.90
37782;DHT22;23621;50.878;4.584;2022-08-19T08:27:49;27.20;75.70
37782;DHT22;23621;50.878;4.584;2022-08-19T08:30:24;27.30;75.50
37782;DHT22;23621;50.878;4.584;2022-08-19T08:32:50;27.30;75.50
37782;DHT22;23621;50.878;4.584;2022-08-19T08:35:21;27.40;75.30
37782;DHT22;23621;50.878;4.584;2022-08-19T08:37:48;27.50;75.60
37782;DHT22;23621;50.878;4.584;2022-08-19T08:46:09;27.60;74.90
37782;DHT22;23621;50.878;4.584;2022-08-19T08:48:45;27.70;75.20
37782;DHT22;23621;50.878;4.584;2022-08-19T08:51:22;27.70;75.10
37782;DHT22;23621;50.878;4.584;2022-08-19T08:53:52;27.80;75.00
37782;DHT22;23621;50.878;4.584;2022-08-19T08:56:19;28.00;74.90
37782;DHT22;23621;50.878;4.584;2022-08-19T09:01:21;28.10;74.60
37782;DHT22;23621;50.878;4.584;2022-08-19T09:03:47;28.10;74.60
37782;DHT22;23621;50.878;4.584;2022-08-19T09:06:35;28.00;74.70
37782;DHT22;23621;50.878;4.584;2022-08-19T09:09:17;28.00;74.70
37782;DHT22;23621;50.878;4.584;2022-08-19T09:12:13;28.10;74.70
37782;DHT22;23621;50.878;4.584;2022-08-19T09:14:51;28.10;74.40
37782;DHT22;23621;50.878;4.584;2022-08-19T09:17:26;28.10;74.40
37782;DHT22;23621;50.878;4.584;2022-08-19T09:19:57;28.10;74.70
37782;DHT22;23621;50.878;4.584;2022-08-19T09:22:24;28.00;74.50
37782;DHT22;23621;50.878;4.584;2022-08-19T09:24:50;28.00;74.60
37782;DHT22;23621;50.878;4.584;2022-08-19T09:27:21;28.00;74.50
37782;DHT22;23621;50.878;4.584;2022-08-19T09:29:49;28.00;74.60
37782;DHT22;23621;50.878;4.584;2022-08-19T09:32:16;28.00;74.60
37782;DHT22;23621;50.878;4.584;2022-08-19T09:34:43;28.10;74.40
37782;DHT22;23621;50.878;4.584;2022-08-19T09:37:09;28.20;74.40
37782;DHT22;23621;50.878;4.584;2022-08-19T09:39:35;28.30;74.40
37782;DHT22;23621;50.878;4.584;2022-08-19T09:42:00;28.30;74.30
37782;DHT22;23621;50.878;4.584;2022-08-19T09:44:29;28.30;74.10
37782;DHT22;23621;50.878;4.584;2022-08-19T09:46:54;28.40;74.00
37782;DHT22;23621;50.878;4.584;2022-08-19T09:49:21;28.50;74.00
37782;DHT22;23621;50.878;4.584;2022-08-19T09:51:51;28.50;74.10
37782;DHT22;23621;50.878;4.584;2022-08-19T09:54:21;28.50;74.20
37782;DHT22;23621;50.878;4.584;2022-08-19T09:56:46;28.40;74.10
37782;DHT22;23621;50.878;4.584;2022-08-19T09:59:12;28.50;74.20
37782;DHT22;23621;50.878;4.584;2022-08-19T10:01:38;28.40;74.20
37782;DHT22;23621;50.878;4.584;2022-08-19T10:04:05;28.50;74.20
37782;DHT22;23621;50.878;4.584;2022-08-19T10:06:35;28.60;74.20
37782;DHT22;23621;50.878;4.584;2022-08-19T10:09:03;28.60;74.00
37782;DHT22;23621;50.878;4.584;2022-08-19T10:11:31;28.60;73.80
37782;DHT22;23621;50.878;4.584;2022-08-19T10:13:57;28.60;73.80
37782;DHT22;23621;50.878;4.584;2022-08-19T10:16:23;28.60;73.90
37782;DHT22;23621;50.878;4.584;2022-08-19T10:18:50;28.60;73.90
37782;DHT22;23621;50.878;4.584;2022-08-19T10:23:45;28.80;74.10
37782;DHT22;23621;50.878;4.584;2022-08-19T10:26:21;28.90;74.00
37782;DHT22;23621;50.878;4.584;2022-08-19T10:28:47;29.00;73.50
37782;DHT22;23621;50.878;4.584;2022-08-19T10:31:17;29.00;73.20
37782;DHT22;23621;50.878;4.584;2022-08-19T10:33:45;29.10;73.20
37782;DHT22;23621;50.878;4.584;2022-08-19T10:36:22;29.10;73.90
37782;DHT22;23621;50.878;4.584;2022-08-19T10:38:51;29.10;73.30
37782;DHT22;23621;50.878;4.584;2022-08-19T10:41:20;29.20;73.00
37782;DHT22;23621;50.878;4.584;2022-08-19T10:43:47;29.20;72.80
37782;DHT22;23621;50.878;4.584;2022-08-19T10:46:16;29.20;72.60
37782;DHT22;23621;50.878;4.584;2022-08-19T10:48:43;29.20;72.70
37782;DHT22;23621;50.878;4.584;2022-08-19T10:51:09;29.20;72.70
37782;DHT22;23621;50.878;4.584;2022-08-19T10:53:55;29.20;72.80
37782;DHT22;23621;50.878;4.584;2022-08-19T10:56:21;29.20;72.80
37782;DHT22;23621;50.878;4.584;2022-08-19T10:59:06;29.20;72.90
37782;DHT22;23621;50.878;4.584;2022-08-19T11:01:33;29.20;73.10
37782;DHT22;23621;50.878;4.584;2022-08-19T11:04:04;29.20;73.00
37782;DHT22;23621;50.878;4.584;2022-08-19T11:06:32;29.30;73.00
37782;DHT22;23621;50.878;4.584;2022-08-19T11:08:58;29.30;72.60
37782;DHT22;23621;50.878;4.584;2022-08-19T11:11:25;29.30;72.60
37782;DHT22;23621;50.878;4.584;2022-08-19T11:13:51;29.40;72.90
37782;DHT22;23621;50.878;4.584;2022-08-19T11:16:23;29.40;72.90
37782;DHT22;23621;50.878;4.584;2022-08-19T11:18:54;29.50;72.70
37782;DHT22;23621;50.878;4.584;2022-08-19T11:21:32;29.50;72.40
37782;DHT22;23621;50.878;4.584;2022-08-19T11:24:02;29.50;73.00
37782;DHT22;23621;50.878;4.584;2022-08-19T11:26:29;29.40;72.50
37782;DHT22;23621;50.878;4.584;2022-08-19T11:28:56;29.40;72.60
37782;DHT22;23621;50.878;4.584;2022-08-19T11:31:29;29.40;72.90
37782;DHT22;23621;50.878;4.584;2022-08-19T11:34:02;29.50;73.00
37782;DHT22;23621;50.878;4.584;2022-08-19T11:36:28;29.50;72.40
37782;DHT22;23621;50.878;4.584;2022-08-19T11:38:55;29.60;72.30
37782;DHT22;23621;50.878;4.584;2022-08-19T11:41:22;29.50;72.40
37782;DHT22;23621;50.878;4.584;2022-08-19T11:43:49;29.60;72.70
37782;DHT22;23621;50.878;4.584;2022-08-19T11:46:16;29.50;72.70
37782;DHT22;23621;50.878;4.584;2022-08-19T11:48:42;29.50;72.60
37782;DHT22;23621;50.878;4.584;2022-08-19T11:51:11;29.50;72.80
37782;DHT22;23621;50.878;4.584;2022-08-19T11:53:38;29.30;73.00
37782;DHT22;23621;50.878;4.584;2022-08-19T11:56:05;29.20;73.30
37782;DHT22;23621;50.878;4.584;2022-08-19T11:58:31;29.30;73.60
37782;DHT22;23621;50.878;4.584;2022-08-19T12:00:57;29.40;73.70
37782;DHT22;23621;50.878;4.584;2022-08-19T12:03:23;29.50;73.60
37782;DHT22;23621;50.878;4.584;2022-08-19T12:05:49;29.50;73.40
37782;DHT22;23621;50.878;4.584;2022-08-19T12:08:15;29.40;73.20
37782;DHT22;23621;50.878;4.584;2022-08-19T12:10:42;29.30;73.20
37782;DHT22;23621;50.878;4.584;2022-08-19T12:13:10;29.30;73.50
37782;DHT22;23621;50.878;4.584;2022-08-19T12:15:37;29.20;73.60
37782;DHT22;23621;50.878;4.584;2022-08-19T12:18:03;29.30;73.80
37782;DHT22;23621;50.878;4.584;2022-08-19T12:20:29;29.30;73.90
37782;DHT22;23621;50.878;4.584;2022-08-19T12:22:55;29.40;73.80
37782;DHT22;23621;50.878;4.584;2022-08-19T12:25:21;29.50;73.60
37782;DHT22;23621;50.878;4.584;2022-08-19T12:27:47;29.60;73.50
37782;DHT22;23621;50.878;4.584;2022-08-19T12:30:13;29.70;73.40
37782;DHT22;23621;50.878;4.584;2022-08-19T12:32:39;29.80;72.90
37782;DHT22;23621;50.878;4.584;2022-08-19T12:35:06;30.00;72.60
37782;DHT22;23621;50.878;4.584;2022-08-19T12:37:32;30.10;72.50
37782;DHT22;23621;50.878;4.584;2022-08-19T12:39:58;30.20;72.00
37782;DHT22;23621;50.878;4.584;2022-08-19T12:42:24;30.20;71.70
37782;DHT22;23621;50.878;4.584;2022-08-19T12:44:50;30.40;71.90
37782;DHT22;23621;50.878;4.584;2022-08-19T12:47:17;30.50;71.50
37782;DHT22;23621;50.878;4.584;2022-08-19T12:49:43;30.70;71.20
37782;DHT22;23621;50.878;4.584;2022-08-19T12:52:09;30.70;70.90
37782;DHT22;23621;50.878;4.584;2022-08-19T12:54:36;30.80;70.50
37782;DHT22;23621;50.878;4.584;2022-08-19T12:57:07;30.90;70.20
37782;DHT22;23621;50.878;4.584;2022-08-19T12:59:34;31.00;69.50
37782;DHT22;23621;50.878;4.584;2022-08-19T13:02:00;31.00;69.30
37782;DHT22;23621;50.878;4.584;2022-08-19T13:04:25;31.20;69.30
37782;DHT22;23621;50.878;4.584;2022-08-19T13:06:51;31.20;69.30
37782;DHT22;23621;50.878;4.584;2022-08-19T13:09:17;31.20;69.20
37782;DHT22;23621;50.878;4.584;2022-08-19T13:11:42;31.30;69.40
37782;DHT22;23621;50.878;4.584;2022-08-19T13:14:09;31.30;68.80
37782;DHT22;23621;50.878;4.584;2022-08-19T13:16:36;31.20;68.50
37782;DHT22;23621;50.878;4.584;2022-08-19T13:19:04;31.20;69.10
37782;DHT22;23621;50.878;4.584;2022-08-19T13:21:30;31.30;69.20
37782;DHT22;23621;50.878;4.584;2022-08-19T13:23:56;31.30;69.00
37782;DHT22;23621;50.878;4.584;2022-08-19T13:26:22;31.30;68.90
37782;DHT22;23621;50.878;4.584;2022-08-19T13:28:48;31.30;68.70
37782;DHT22;23621;50.878;4.584;2022-08-19T13:31:35;31.30;68.70
37782;DHT22;23621;50.878;4.584;2022-08-19T13:34:34;31.20;68.60
37782;DHT22;23621;50.878;4.584;2022-08-19T13:37:01;31.20;68.50
37782;DHT22;23621;50.878;4.584;2022-08-19T13:39:31;31.30;68.90
37782;DHT22;23621;50.878;4.584;2022-08-19T13:41:58;31.30;68.70
37782;DHT22;23621;50.878;4.584;2022-08-19T13:44:26;31.30;68.10
37782;DHT22;23621;50.878;4.584;2022-08-19T13:46:51;31.40;67.60
37782;DHT22;23621;50.878;4.584;2022-08-19T13:49:18;31.40;67.50
37782;DHT22;23621;50.878;4.584;2022-08-19T13:51:45;31.50;67.30
37782;DHT22;23621;50.878;4.584;2022-08-19T13:54:12;31.60;67.30
37782;DHT22;23621;50.878;4.584;2022-08-19T13:56:45;31.50;66.80
37782;DHT22;23621;50.878;4.584;2022-08-19T13:59:11;31.30;66.50
37782;DHT22;23621;50.878;4.584;2022-08-19T14:01:37;31.40;67.00
37782;DHT22;23621;50.878;4.584;2022-08-19T14:04:04;31.40;67.20
37782;DHT22;23621;50.878;4.584;2022-08-19T14:06:31;31.40;67.00
37782;DHT22;23621;50.878;4.584;2022-08-19T14:08:57;31.50;67.20
37782;DHT22;23621;50.878;4.584;2022-08-19T14:11:22;31.60;66.80
37782;DHT22;23621;50.878;4.584;2022-08-19T14:13:48;31.70;66.70
37782;DHT22;23621;50.878;4.584;2022-08-19T14:16:16;31.70;66.30
37782;DHT22;23621;50.878;4.584;2022-08-19T14:18:42;31.90;66.00
37782;DHT22;23621;50.878;4.584;2022-08-19T14:21:19;31.70;66.30
37782;DHT22;23621;50.878;4.584;2022-08-19T14:23:45;31.80;65.60
37782;DHT22;23621;50.878;4.584;2022-08-19T14:26:14;31.70;65.70
37782;DHT22;23621;50.878;4.584;2022-08-19T14:28:40;31.90;65.90
37782;DHT22;23621;50.878;4.584;2022-08-19T14:31:08;31.80;65.70
37782;DHT22;23621;50.878;4.584;2022-08-19T14:33:33;31.60;65.80
37782;DHT22;23621;50.878;4.584;2022-08-19T14:35:59;31.50;65.60
37782;DHT22;23621;50.878;4.584;2022-08-19T14:38:26;31.40;66.30
37782;DHT22;23621;50.878;4.584;2022-08-19T14:40:52;31.20;66.50
37782;DHT22;23621;50.878;4.584;2022-08-19T14:43:18;31.00;67.20
37782;DHT22;23621;50.878;4.584;2022-08-19T14:45:44;30.80;68.30
37782;DHT22;23621;50.878;4.584;2022-08-19T14:48:09;30.30;70.00
37782;DHT22;23621;50.878;4.584;2022-08-19T14:50:36;30.30;71.30
37782;DHT22;23621;50.878;4.584;2022-08-19T14:53:07;30.00;73.30
37782;DHT22;23621;50.878;4.584;2022-08-19T14:55:33;30.00;73.80
37782;DHT22;23621;50.878;4.584;2022-08-19T14:57:59;30.00;74.50
37782;DHT22;23621;50.878;4.584;2022-08-19T15:00:26;30.00;74.70
37782;DHT22;23621;50.878;4.584;2022-08-19T15:02:52;30.00;75.60
37782;DHT22;23621;50.878;4.584;2022-08-19T15:05:19;29.90;75.00
37782;DHT22;23621;50.878;4.584;2022-08-19T15:07:46;29.90;75.80
37782;DHT22;23621;50.878;4.584;2022-08-19T15:10:13;29.80;75.80
37782;DHT22;23621;50.878;4.584;2022-08-19T15:12:39;29.90;75.60
37782;DHT22;23621;50.878;4.584;2022-08-19T15:15:13;29.90;75.30
37782;DHT22;23621;50.878;4.584;2022-08-19T15:17:40;29.80;73.70
37782;DHT22;23621;50.878;4.584;2022-08-19T15:20:07;29.70;73.80
37782;DHT22;23621;50.878;4.584;2022-08-19T15:22:33;29.70;73.70
37782;DHT22;23621;50.878;4.584;2022-08-19T15:25:01;29.70;73.50
37782;DHT22;23621;50.878;4.584;2022-08-19T15:27:27;29.70;74.10
37782;DHT22;23621;50.878;4.584;2022-08-19T15:29:52;29.60;75.30
37782;DHT22;23621;50.878;4.584;2022-08-19T15:32:18;29.60;76.00
37782;DHT22;23621;50.878;4.584;2022-08-19T15:34:44;29.90;76.80
37782;DHT22;23621;50.878;4.584;2022-08-19T15:37:10;30.10;77.00
37782;DHT22;23621;50.878;4.584;2022-08-19T15:39:36;30.50;77.00
37782;DHT22;23621;50.878;4.584;2022-08-19T15:42:02;30.80;76.80
37782;DHT22;23621;50.878;4.584;2022-08-19T15:44:28;31.50;76.20
37782;DHT22;23621;50.878;4.584;2022-08-19T15:46:54;32.60;74.00
37782;DHT22;23621;50.878;4.584;2022-08-19T15:49:20;33.60;71.50